sensor_id;sensor_type;location;lat;lon;timestamp;P1;durP1;ratioP1;P2;durP2;ratioP2
39128;SDS011;24864;49.940;19.770;2022-07-10T00:02:24;8.93;;;6.78;;
39128;SDS011;24864;49.940;19.770;2022-07-10T00:04:52;8.20;;;6.93;;
39128;SDS011;24864;49.940;19.770;2022-07-10T00:07:20;8.85;;;7.07;;
39128;SDS011;24864;49.940;19.770;2022-07-10T00:09:48;9.25;;;6.65;;
39128;SDS011;24864;49.940;19.770;2022-07-10T00:12:17;9.77;;;6.93;;
39128;SDS011;24864;49.940;19.770;2022-07-10T00:14:45;9.48;;;6.88;;
39128;SDS011;24864;49.940;19.770;2022-07-10T00:17:13;12.02;;;7.72;;
39128;SDS011;24864;49.940;19.770;2022-07-10T00:19:42;10.00;;;7.60;;
39128;SDS011;24864;49.940;19.770;2022-07-10T00:22:09;9.63;;;6.97;;
39128;SDS011;24864;49.940;19.770;2022-07-10T00:24:37;9.93;;;6.50;;
39128;SDS011;24864;49.940;19.770;2022-07-10T00:27:06;7.95;;;7.13;;
39128;SDS011;24864;49.940;19.770;2022-07-10T00:29:35;9.70;;;7.20;;
39128;SDS011;24864;49.940;19.770;2022-07-10T00:32:03;11.23;;;6.82;;
39128;SDS011;24864;49.940;19.770;2022-07-10T00:34:31;8.95;;;7.53;;
39128;SDS011;24864;49.940;19.770;2022-07-10T00:36:59;9.55;;;7.10;;
39128;SDS011;24864;49.940;19.770;2022-07-10T00:39:27;9.40;;;7.30;;
39128;SDS011;24864;49.940;19.770;2022-07-10T00:41:59;8.07;;;6.97;;
39128;SDS011;24864;49.940;19.770;2022-07-10T00:44:35;9.98;;;7.13;;
39128;SDS011;24864;49.940;19.770;2022-07-10T00:47:04;8.63;;;7.72;;
39128;SDS011;24864;49.940;19.770;2022-07-10T00:49:32;12.88;;;8.02;;
39128;SDS011;24864;49.940;19.770;2022-07-10T00:52:02;8.48;;;7.47;;
39128;SDS011;24864;49.940;19.770;2022-07-10T00:54:34;7.88;;;6.78;;
39128;SDS011;24864;49.940;19.770;2022-07-10T00:57:03;12.25;;;7.82;;
39128;SDS011;24864;49.940;19.770;2022-07-10T00:59:33;9.48;;;7.95;;
39128;SDS011;24864;49.940;19.770;2022-07-10T01:02:03;12.23;;;8.38;;
39128;SDS011;24864;49.940;19.770;2022-07-10T01:04:32;9.82;;;7.88;;
39128;SDS011;24864;49.940;19.770;2022-07-10T01:07:00;11.15;;;7.72;;
39128;SDS011;24864;49.940;19.770;2022-07-10T01:09:28;13.10;;;8.77;;
39128;SDS011;24864;49.940;19.770;2022-07-10T01:11:56;9.90;;;8.15;;
39128;SDS011;24864;49.940;19.770;2022-07-10T01:14:27;9.65;;;8.70;;
39128;SDS011;24864;49.940;19.770;2022-07-10T01:16:56;13.00;;;8.73;;
39128;SDS011;24864;49.940;19.770;2022-07-10T01:19:26;10.50;;;8.57;;
39128;SDS011;24864;49.940;19.770;2022-07-10T01:21:55;11.60;;;9.07;;
39128;SDS011;24864;49.940;19.770;2022-07-10T01:24:23;15.82;;;8.88;;
39128;SDS011;24864;49.940;19.770;2022-07-10T01:26:51;12.65;;;8.48;;
39128;SDS011;24864;49.940;19.770;2022-07-10T01:29:20;10.27;;;8.82;;
39128;SDS011;24864;49.940;19.770;2022-07-10T01:31:49;20.17;;;9.27;;
39128;SDS011;24864;49.940;19.770;2022-07-10T01:34:23;9.88;;;8.50;;
39128;SDS011;24864;49.940;19.770;2022-07-10T01:36:51;12.80;;;9.00;;
39128;SDS011;24864;49.940;19.770;2022-07-10T01:39:20;12.98;;;8.70;;
39128;SDS011;24864;49.940;19.770;2022-07-10T01:41:48;10.07;;;8.25;;
39128;SDS011;24864;49.940;19.770;2022-07-10T01:44:16;11.82;;;8.30;;
39128;SDS011;24864;49.940;19.770;2022-07-10T01:46:44;9.95;;;8.85;;
39128;SDS011;24864;49.940;19.770;2022-07-10T01:49:13;11.05;;;8.50;;
39128;SDS011;24864;49.940;19.770;2022-07-10T01:51:41;12.45;;;9.60;;
39128;SDS011;24864;49.940;19.770;2022-07-10T01:54:09;10.13;;;7.97;;
39128;SDS011;24864;49.940;19.770;2022-07-10T01:56:38;11.80;;;9.05;;
39128;SDS011;24864;49.940;19.770;2022-07-10T01:59:07;10.27;;;7.78;;
39128;SDS011;24864;49.940;19.770;2022-07-10T02:01:35;9.27;;;8.20;;
39128;SDS011;24864;49.940;19.770;2022-07-10T02:04:03;10.10;;;7.68;;
39128;SDS011;24864;49.940;19.770;2022-07-10T02:06:49;11.65;;;7.97;;
39128;SDS011;24864;49.940;19.770;2022-07-10T02:09:17;9.65;;;8.20;;
39128;SDS011;24864;49.940;19.770;2022-07-10T02:11:46;10.98;;;7.43;;
39128;SDS011;24864;49.940;19.770;2022-07-10T02:14:14;11.55;;;8.02;;
39128;SDS011;24864;49.940;19.770;2022-07-10T02:16:42;10.52;;;7.60;;
39128;SDS011;24864;49.940;19.770;2022-07-10T02:19:11;11.88;;;7.57;;
39128;SDS011;24864;49.940;19.770;2022-07-10T02:21:39;9.85;;;7.43;;
39128;SDS011;24864;49.940;19.770;2022-07-10T02:24:07;9.77;;;7.60;;
39128;SDS011;24864;49.940;19.770;2022-07-10T02:26:35;9.95;;;7.50;;
39128;SDS011;24864;49.940;19.770;2022-07-10T02:29:05;12.20;;;7.25;;
39128;SDS011;24864;49.940;19.770;2022-07-10T02:31:33;9.60;;;7.15;;
39128;SDS011;24864;49.940;19.770;2022-07-10T02:34:03;11.27;;;7.53;;
39128;SDS011;24864;49.940;19.770;2022-07-10T02:36:31;11.30;;;7.22;;
39128;SDS011;24864;49.940;19.770;2022-07-10T02:38:59;8.82;;;6.82;;
39128;SDS011;24864;49.940;19.770;2022-07-10T02:41:27;11.27;;;7.53;;
39128;SDS011;24864;49.940;19.770;2022-07-10T02:43:55;15.70;;;7.50;;
39128;SDS011;24864;49.940;19.770;2022-07-10T02:46:24;8.68;;;7.00;;
39128;SDS011;24864;49.940;19.770;2022-07-10T02:48:52;8.07;;;7.25;;
39128;SDS011;24864;49.940;19.770;2022-07-10T02:51:20;16.73;;;8.35;;
39128;SDS011;24864;49.940;19.770;2022-07-10T02:53:48;9.32;;;6.93;;
39128;SDS011;24864;49.940;19.770;2022-07-10T02:56:16;9.50;;;6.90;;
39128;SDS011;24864;49.940;19.770;2022-07-10T02:58:44;9.48;;;6.38;;
39128;SDS011;24864;49.940;19.770;2022-07-10T03:01:12;10.82;;;7.20;;
39128;SDS011;24864;49.940;19.770;2022-07-10T03:03:42;8.50;;;6.03;;
39128;SDS011;24864;49.940;19.770;2022-07-10T03:06:09;7.40;;;6.70;;
39128;SDS011;24864;49.940;19.770;2022-07-10T03:08:37;8.00;;;6.20;;
39128;SDS011;24864;49.940;19.770;2022-07-10T03:11:06;7.75;;;6.20;;
39128;SDS011;24864;49.940;19.770;2022-07-10T03:13:34;8.93;;;6.55;;
39128;SDS011;24864;49.940;19.770;2022-07-10T03:16:02;9.32;;;5.38;;
39128;SDS011;24864;49.940;19.770;2022-07-10T03:18:30;8.52;;;6.03;;
39128;SDS011;24864;49.940;19.770;2022-07-10T03:21:00;10.10;;;6.03;;
39128;SDS011;24864;49.940;19.770;2022-07-10T03:23:28;9.57;;;5.47;;
39128;SDS011;24864;49.940;19.770;2022-07-10T03:25:55;10.45;;;5.68;;
39128;SDS011;24864;49.940;19.770;2022-07-10T03:28:23;8.23;;;5.45;;
39128;SDS011;24864;49.940;19.770;2022-07-10T03:30:51;6.90;;;5.65;;
39128;SDS011;24864;49.940;19.770;2022-07-10T03:33:19;7.20;;;5.38;;
39128;SDS011;24864;49.940;19.770;2022-07-10T03:35:47;10.27;;;5.72;;
39128;SDS011;24864;49.940;19.770;2022-07-10T03:38:17;8.07;;;6.22;;
39128;SDS011;24864;49.940;19.770;2022-07-10T03:40:45;12.98;;;5.55;;
39128;SDS011;24864;49.940;19.770;2022-07-10T03:43:15;6.07;;;5.35;;
39128;SDS011;24864;49.940;19.770;2022-07-10T03:45:42;11.57;;;5.13;;
39128;SDS011;24864;49.940;19.770;2022-07-10T03:48:10;6.50;;;5.32;;
39128;SDS011;24864;49.940;19.770;2022-07-10T03:50:39;7.72;;;4.88;;
39128;SDS011;24864;49.940;19.770;2022-07-10T03:53:07;6.85;;;5.05;;
39128;SDS011;24864;49.940;19.770;2022-07-10T03:55:36;5.47;;;4.45;;
39128;SDS011;24864;49.940;19.770;2022-07-10T03:58:04;5.47;;;4.38;;
39128;SDS011;24864;49.940;19.770;2022-07-10T04:00:31;7.10;;;4.70;;
39128;SDS011;24864;49.940;19.770;2022-07-10T04:03:00;7.15;;;4.70;;
39128;SDS011;24864;49.940;19.770;2022-07-10T04:05:29;7.65;;;4.20;;
39128;SDS011;24864;49.940;19.770;2022-07-10T04:07:58;6.97;;;4.25;;
39128;SDS011;24864;49.940;19.770;2022-07-10T04:10:28;8.07;;;4.05;;
39128;SDS011;24864;49.940;19.770;2022-07-10T04:12:59;6.90;;;4.32;;
39128;SDS011;24864;49.940;19.770;2022-07-10T04:15:27;7.45;;;4.50;;
39128;SDS011;24864;49.940;19.770;2022-07-10T04:17:55;6.63;;;3.67;;
39128;SDS011;24864;49.940;19.770;2022-07-10T04:20:24;9.23;;;4.50;;
39128;SDS011;24864;49.940;19.770;2022-07-10T04:22:51;7.15;;;5.00;;
39128;SDS011;24864;49.940;19.770;2022-07-10T04:25:20;6.70;;;4.30;;
39128;SDS011;24864;49.940;19.770;2022-07-10T04:27:48;5.45;;;4.13;;
39128;SDS011;24864;49.940;19.770;2022-07-10T04:30:17;10.43;;;4.18;;
39128;SDS011;24864;49.940;19.770;2022-07-10T04:32:45;6.53;;;4.57;;
39128;SDS011;24864;49.940;19.770;2022-07-10T04:35:13;7.78;;;4.82;;
39128;SDS011;24864;49.940;19.770;2022-07-10T04:37:41;6.07;;;4.65;;
39128;SDS011;24864;49.940;19.770;2022-07-10T04:40:09;8.77;;;4.13;;
39128;SDS011;24864;49.940;19.770;2022-07-10T04:42:38;11.82;;;4.75;;
39128;SDS011;24864;49.940;19.770;2022-07-10T04:45:06;7.03;;;4.30;;
39128;SDS011;24864;49.940;19.770;2022-07-10T04:47:36;6.95;;;4.40;;
39128;SDS011;24864;49.940;19.770;2022-07-10T04:50:04;8.73;;;4.20;;
39128;SDS011;24864;49.940;19.770;2022-07-10T04:52:33;7.38;;;4.60;;
39128;SDS011;24864;49.940;19.770;2022-07-10T04:55:01;6.90;;;4.65;;
39128;SDS011;24864;49.940;19.770;2022-07-10T04:57:29;5.90;;;4.38;;
39128;SDS011;24864;49.940;19.770;2022-07-10T04:59:57;6.72;;;4.13;;
39128;SDS011;24864;49.940;19.770;2022-07-10T05:02:25;6.45;;;4.00;;
39128;SDS011;24864;49.940;19.770;2022-07-10T05:04:54;6.57;;;4.03;;
39128;SDS011;24864;49.940;19.770;2022-07-10T05:07:22;6.82;;;4.38;;
39128;SDS011;24864;49.940;19.770;2022-07-10T05:09:50;5.38;;;4.20;;
39128;SDS011;24864;49.940;19.770;2022-07-10T05:12:18;4.95;;;4.28;;
39128;SDS011;24864;49.940;19.770;2022-07-10T05:14:46;7.22;;;5.38;;
39128;SDS011;24864;49.940;19.770;2022-07-10T05:17:14;6.53;;;5.25;;
39128;SDS011;24864;49.940;19.770;2022-07-10T05:19:42;9.48;;;5.25;;
39128;SDS011;24864;49.940;19.770;2022-07-10T05:22:11;7.93;;;5.55;;
39128;SDS011;24864;49.940;19.770;2022-07-10T05:24:39;7.63;;;5.55;;
39128;SDS011;24864;49.940;19.770;2022-07-10T05:27:07;10.00;;;5.63;;
39128;SDS011;24864;49.940;19.770;2022-07-10T05:29:35;10.18;;;6.45;;
39128;SDS011;24864;49.940;19.770;2022-07-10T05:32:03;11.73;;;8.75;;
39128;SDS011;24864;49.940;19.770;2022-07-10T05:34:31;12.35;;;9.52;;
39128;SDS011;24864;49.940;19.770;2022-07-10T05:36:59;13.93;;;9.15;;
39128;SDS011;24864;49.940;19.770;2022-07-10T05:39:28;13.00;;;9.93;;
39128;SDS011;24864;49.940;19.770;2022-07-10T05:41:56;11.45;;;10.32;;
39128;SDS011;24864;49.940;19.770;2022-07-10T05:44:24;10.90;;;9.80;;
39128;SDS011;24864;49.940;19.770;2022-07-10T05:46:52;11.70;;;9.90;;
39128;SDS011;24864;49.940;19.770;2022-07-10T05:49:20;11.90;;;10.70;;
39128;SDS011;24864;49.940;19.770;2022-07-10T05:51:48;13.40;;;11.40;;
39128;SDS011;24864;49.940;19.770;2022-07-10T05:54:16;15.50;;;12.07;;
39128;SDS011;24864;49.940;19.770;2022-07-10T05:56:46;15.10;;;12.13;;
39128;SDS011;24864;49.940;19.770;2022-07-10T05:59:13;13.65;;;12.20;;
39128;SDS011;24864;49.940;19.770;2022-07-10T06:01:41;13.88;;;11.07;;
39128;SDS011;24864;49.940;19.770;2022-07-10T06:04:10;13.38;;;10.90;;
39128;SDS011;24864;49.940;19.770;2022-07-10T06:06:38;17.42;;;11.43;;
39128;SDS011;24864;49.940;19.770;2022-07-10T06:09:05;11.52;;;10.32;;
39128;SDS011;24864;49.940;19.770;2022-07-10T06:11:34;11.38;;;9.90;;
39128;SDS011;24864;49.940;19.770;2022-07-10T06:14:03;12.27;;;9.57;;
39128;SDS011;24864;49.940;19.770;2022-07-10T06:16:31;11.00;;;8.88;;
39128;SDS011;24864;49.940;19.770;2022-07-10T06:18:59;9.32;;;8.38;;
39128;SDS011;24864;49.940;19.770;2022-07-10T06:21:27;9.32;;;8.48;;
39128;SDS011;24864;49.940;19.770;2022-07-10T06:23:54;8.93;;;8.13;;
39128;SDS011;24864;49.940;19.770;2022-07-10T06:26:23;8.23;;;7.45;;
39128;SDS011;24864;49.940;19.770;2022-07-10T06:28:51;9.90;;;7.85;;
39128;SDS011;24864;49.940;19.770;2022-07-10T06:31:20;10.55;;;8.52;;
39128;SDS011;24864;49.940;19.770;2022-07-10T06:33:48;10.90;;;7.50;;
39128;SDS011;24864;49.940;19.770;2022-07-10T06:36:16;9.00;;;6.28;;
39128;SDS011;24864;49.940;19.770;2022-07-10T06:38:50;12.02;;;6.45;;
39128;SDS011;24864;49.940;19.770;2022-07-10T06:41:18;6.18;;;5.32;;
39128;SDS011;24864;49.940;19.770;2022-07-10T06:43:46;6.13;;;5.53;;
39128;SDS011;24864;49.940;19.770;2022-07-10T06:46:14;6.47;;;5.75;;
39128;SDS011;24864;49.940;19.770;2022-07-10T06:48:44;7.72;;;5.90;;
39128;SDS011;24864;49.940;19.770;2022-07-10T06:51:11;5.07;;;4.10;;
39128;SDS011;24864;49.940;19.770;2022-07-10T06:53:44;5.75;;;4.60;;
39128;SDS011;24864;49.940;19.770;2022-07-10T06:56:12;5.63;;;4.63;;
39128;SDS011;24864;49.940;19.770;2022-07-10T06:58:42;6.45;;;4.20;;
39128;SDS011;24864;49.940;19.770;2022-07-10T07:01:10;5.55;;;4.20;;
39128;SDS011;24864;49.940;19.770;2022-07-10T07:03:38;6.78;;;3.47;;
39128;SDS011;24864;49.940;19.770;2022-07-10T07:06:07;4.65;;;3.83;;
39128;SDS011;24864;49.940;19.770;2022-07-10T07:08:37;4.30;;;3.83;;
39128;SDS011;24864;49.940;19.770;2022-07-10T07:11:05;4.65;;;3.42;;
39128;SDS011;24864;49.940;19.770;2022-07-10T07:13:33;5.50;;;3.70;;
39128;SDS011;24864;49.940;19.770;2022-07-10T07:16:01;5.30;;;3.90;;
39128;SDS011;24864;49.940;19.770;2022-07-10T07:18:32;5.15;;;3.58;;
39128;SDS011;24864;49.940;19.770;2022-07-10T07:21:02;4.82;;;3.83;;
39128;SDS011;24864;49.940;19.770;2022-07-10T07:23:49;6.13;;;3.40;;
39128;SDS011;24864;49.940;19.770;2022-07-10T07:26:17;3.53;;;3.08;;
39128;SDS011;24864;49.940;19.770;2022-07-10T07:28:45;4.28;;;3.65;;
39128;SDS011;24864;49.940;19.770;2022-07-10T07:31:13;3.70;;;3.35;;
39128;SDS011;24864;49.940;19.770;2022-07-10T07:33:44;6.20;;;3.10;;
39128;SDS011;24864;49.940;19.770;2022-07-10T07:36:12;4.80;;;3.28;;
39128;SDS011;24864;49.940;19.770;2022-07-10T07:38:41;3.80;;;2.90;;
39128;SDS011;24864;49.940;19.770;2022-07-10T07:41:10;3.13;;;2.38;;
39128;SDS011;24864;49.940;19.770;2022-07-10T07:43:38;2.95;;;2.38;;
39128;SDS011;24864;49.940;19.770;2022-07-10T07:46:06;4.90;;;2.80;;
39128;SDS011;24864;49.940;19.770;2022-07-10T07:48:36;3.60;;;2.30;;
39128;SDS011;24864;49.940;19.770;2022-07-10T07:51:04;4.75;;;2.38;;
39128;SDS011;24864;49.940;19.770;2022-07-10T07:53:32;2.78;;;2.50;;
39128;SDS011;24864;49.940;19.770;2022-07-10T07:56:00;2.70;;;2.50;;
39128;SDS011;24864;49.940;19.770;2022-07-10T07:58:30;2.95;;;2.67;;
39128;SDS011;24864;49.940;19.770;2022-07-10T08:00:57;4.13;;;3.05;;
39128;SDS011;24864;49.940;19.770;2022-07-10T08:03:25;4.82;;;3.22;;
39128;SDS011;24864;49.940;19.770;2022-07-10T08:06:13;3.75;;;3.15;;
39128;SDS011;24864;49.940;19.770;2022-07-10T08:08:42;3.35;;;2.70;;
39128;SDS011;24864;49.940;19.770;2022-07-10T08:11:10;5.20;;;2.80;;
39128;SDS011;24864;49.940;19.770;2022-07-10T08:13:40;5.22;;;2.97;;
39128;SDS011;24864;49.940;19.770;2022-07-10T08:16:09;3.25;;;2.50;;
39128;SDS011;24864;49.940;19.770;2022-07-10T08:18:37;4.05;;;2.25;;
39128;SDS011;24864;49.940;19.770;2022-07-10T08:21:06;4.97;;;2.15;;
39128;SDS011;24864;49.940;19.770;2022-07-10T08:23:34;4.43;;;2.20;;
39128;SDS011;24864;49.940;19.770;2022-07-10T08:26:01;6.75;;;2.10;;
39128;SDS011;24864;49.940;19.770;2022-07-10T08:28:29;2.75;;;1.48;;
39128;SDS011;24864;49.940;19.770;2022-07-10T08:30:59;4.03;;;1.60;;
39128;SDS011;24864;49.940;19.770;2022-07-10T08:33:28;7.25;;;1.70;;
39128;SDS011;24864;49.940;19.770;2022-07-10T08:35:55;7.43;;;1.88;;
39128;SDS011;24864;49.940;19.770;2022-07-10T08:38:46;8.80;;;2.70;;
39128;SDS011;24864;49.940;19.770;2022-07-10T08:41:14;4.35;;;2.33;;
39128;SDS011;24864;49.940;19.770;2022-07-10T08:43:45;5.38;;;2.05;;
39128;SDS011;24864;49.940;19.770;2022-07-10T08:46:14;8.75;;;3.00;;
39128;SDS011;24864;49.940;19.770;2022-07-10T08:48:43;6.80;;;2.60;;
39128;SDS011;24864;49.940;19.770;2022-07-10T08:53:51;3.88;;;2.30;;
39128;SDS011;24864;49.940;19.770;2022-07-10T08:56:20;3.55;;;1.70;;
39128;SDS011;24864;49.940;19.770;2022-07-10T08:58:48;5.00;;;2.30;;
39128;SDS011;24864;49.940;19.770;2022-07-10T09:01:19;3.20;;;1.73;;
39128;SDS011;24864;49.940;19.770;2022-07-10T09:03:49;7.40;;;1.70;;
39128;SDS011;24864;49.940;19.770;2022-07-10T09:06:17;4.80;;;1.80;;
39128;SDS011;24864;49.940;19.770;2022-07-10T09:08:58;2.97;;;1.60;;
39128;SDS011;24864;49.940;19.770;2022-07-10T09:11:28;9.07;;;2.10;;
39128;SDS011;24864;49.940;19.770;2022-07-10T09:13:57;9.95;;;2.00;;
39128;SDS011;24864;49.940;19.770;2022-07-10T09:16:31;5.25;;;2.30;;
39128;SDS011;24864;49.940;19.770;2022-07-10T09:19:14;4.10;;;1.53;;
39128;SDS011;24864;49.940;19.770;2022-07-10T09:21:44;4.47;;;3.22;;
39128;SDS011;24864;49.940;19.770;2022-07-10T09:24:13;11.85;;;5.55;;
39128;SDS011;24864;49.940;19.770;2022-07-10T09:26:45;13.48;;;11.98;;
39128;SDS011;24864;49.940;19.770;2022-07-10T09:29:30;3.65;;;2.42;;
39128;SDS011;24864;49.940;19.770;2022-07-10T09:32:01;4.60;;;2.05;;
39128;SDS011;24864;49.940;19.770;2022-07-10T09:34:40;6.45;;;2.75;;
39128;SDS011;24864;49.940;19.770;2022-07-10T09:37:19;3.38;;;1.83;;
39128;SDS011;24864;49.940;19.770;2022-07-10T09:39:55;4.57;;;1.83;;
39128;SDS011;24864;49.940;19.770;2022-07-10T09:42:25;6.20;;;1.90;;
39128;SDS011;24864;49.940;19.770;2022-07-10T09:47:45;3.83;;;1.50;;
39128;SDS011;24864;49.940;19.770;2022-07-10T09:50:22;6.38;;;1.88;;
39128;SDS011;24864;49.940;19.770;2022-07-10T09:52:52;4.13;;;1.60;;
39128;SDS011;24864;49.940;19.770;2022-07-10T09:55:21;4.22;;;2.42;;
39128;SDS011;24864;49.940;19.770;2022-07-10T09:57:54;7.85;;;2.20;;
39128;SDS011;24864;49.940;19.770;2022-07-10T10:00:24;7.60;;;2.10;;
39128;SDS011;24864;49.940;19.770;2022-07-10T10:02:56;6.03;;;1.70;;
39128;SDS011;24864;49.940;19.770;2022-07-10T10:05:28;5.32;;;1.60;;
39128;SDS011;24864;49.940;19.770;2022-07-10T10:08:04;5.50;;;1.48;;
39128;SDS011;24864;49.940;19.770;2022-07-10T10:10:45;2.38;;;1.08;;
39128;SDS011;24864;49.940;19.770;2022-07-10T10:13:15;6.82;;;1.45;;
39128;SDS011;24864;49.940;19.770;2022-07-10T10:15:45;6.97;;;1.60;;
39128;SDS011;24864;49.940;19.770;2022-07-10T10:18:16;2.28;;;1.45;;
39128;SDS011;24864;49.940;19.770;2022-07-10T10:20:45;3.17;;;1.30;;
39128;SDS011;24864;49.940;19.770;2022-07-10T10:23:14;4.00;;;1.25;;
39128;SDS011;24864;49.940;19.770;2022-07-10T10:25:44;4.88;;;1.40;;
39128;SDS011;24864;49.940;19.770;2022-07-10T10:28:13;2.72;;;1.20;;
39128;SDS011;24864;49.940;19.770;2022-07-10T10:30:44;6.88;;;1.50;;
39128;SDS011;24864;49.940;19.770;2022-07-10T10:36:13;5.00;;;1.20;;
39128;SDS011;24864;49.940;19.770;2022-07-10T10:39:08;9.75;;;1.40;;
39128;SDS011;24864;49.940;19.770;2022-07-10T10:41:39;5.53;;;1.10;;
39128;SDS011;24864;49.940;19.770;2022-07-10T10:44:25;5.03;;;1.10;;
39128;SDS011;24864;49.940;19.770;2022-07-10T10:47:00;6.60;;;1.00;;
39128;SDS011;24864;49.940;19.770;2022-07-10T10:49:53;2.00;;;1.10;;
39128;SDS011;24864;49.940;19.770;2022-07-10T10:52:28;7.60;;;1.35;;
39128;SDS011;24864;49.940;19.770;2022-07-10T10:55:01;4.47;;;1.23;;
39128;SDS011;24864;49.940;19.770;2022-07-10T10:57:36;4.05;;;0.90;;
39128;SDS011;24864;49.940;19.770;2022-07-10T11:00:07;5.95;;;1.02;;
39128;SDS011;24864;49.940;19.770;2022-07-10T11:02:36;6.35;;;0.85;;
39128;SDS011;24864;49.940;19.770;2022-07-10T11:08:09;5.45;;;1.08;;
39128;SDS011;24864;49.940;19.770;2022-07-10T11:10:40;3.97;;;0.85;;
39128;SDS011;24864;49.940;19.770;2022-07-10T11:13:15;5.63;;;1.17;;
39128;SDS011;24864;49.940;19.770;2022-07-10T11:15:44;3.63;;;0.75;;
39128;SDS011;24864;49.940;19.770;2022-07-10T11:18:14;5.88;;;1.30;;
39128;SDS011;24864;49.940;19.770;2022-07-10T11:20:44;5.63;;;0.98;;
39128;SDS011;24864;49.940;19.770;2022-07-10T11:23:31;4.20;;;1.08;;
39128;SDS011;24864;49.940;19.770;2022-07-10T11:26:17;2.08;;;0.80;;
39128;SDS011;24864;49.940;19.770;2022-07-10T11:28:51;3.95;;;0.80;;
39128;SDS011;24864;49.940;19.770;2022-07-10T11:31:21;3.85;;;1.05;;
39128;SDS011;24864;49.940;19.770;2022-07-10T11:33:50;2.63;;;0.73;;
39128;SDS011;24864;49.940;19.770;2022-07-10T11:36:20;3.22;;;1.20;;
39128;SDS011;24864;49.940;19.770;2022-07-10T11:38:55;2.30;;;0.75;;
39128;SDS011;24864;49.940;19.770;2022-07-10T11:41:26;4.32;;;1.10;;
39128;SDS011;24864;49.940;19.770;2022-07-10T11:43:55;3.03;;;0.90;;
39128;SDS011;24864;49.940;19.770;2022-07-10T11:46:24;2.63;;;0.95;;
39128;SDS011;24864;49.940;19.770;2022-07-10T11:48:53;2.25;;;1.02;;
39128;SDS011;24864;49.940;19.770;2022-07-10T11:51:24;3.30;;;1.00;;
39128;SDS011;24864;49.940;19.770;2022-07-10T11:53:58;6.53;;;1.10;;
39128;SDS011;24864;49.940;19.770;2022-07-10T11:56:29;3.05;;;1.20;;
39128;SDS011;24864;49.940;19.770;2022-07-10T11:59:00;5.57;;;1.10;;
39128;SDS011;24864;49.940;19.770;2022-07-10T12:01:30;2.85;;;1.00;;
39128;SDS011;24864;49.940;19.770;2022-07-10T12:04:00;2.65;;;1.30;;
39128;SDS011;24864;49.940;19.770;2022-07-10T12:06:30;4.88;;;1.70;;
39128;SDS011;24864;49.940;19.770;2022-07-10T12:09:03;4.57;;;1.80;;
39128;SDS011;24864;49.940;19.770;2022-07-10T12:11:34;3.88;;;1.77;;
39128;SDS011;24864;49.940;19.770;2022-07-10T12:14:10;2.88;;;1.10;;
39128;SDS011;24864;49.940;19.770;2022-07-10T12:16:41;4.07;;;1.50;;
39128;SDS011;24864;49.940;19.770;2022-07-10T12:19:11;3.95;;;1.40;;
39128;SDS011;24864;49.940;19.770;2022-07-10T12:21:40;8.82;;;1.88;;
39128;SDS011;24864;49.940;19.770;2022-07-10T12:24:09;3.85;;;1.25;;
39128;SDS011;24864;49.940;19.770;2022-07-10T12:26:39;4.32;;;1.15;;
39128;SDS011;24864;49.940;19.770;2022-07-10T12:29:11;4.05;;;0.75;;
39128;SDS011;24864;49.940;19.770;2022-07-10T12:31:46;2.08;;;0.80;;
39128;SDS011;24864;49.940;19.770;2022-07-10T12:34:16;5.70;;;0.98;;
39128;SDS011;24864;49.940;19.770;2022-07-10T12:36:45;7.78;;;1.02;;
39128;SDS011;24864;49.940;19.770;2022-07-10T12:39:14;5.75;;;1.00;;
39128;SDS011;24864;49.940;19.770;2022-07-10T12:41:54;3.50;;;0.75;;
39128;SDS011;24864;49.940;19.770;2022-07-10T12:44:30;3.88;;;0.82;;
39128;SDS011;24864;49.940;19.770;2022-07-10T12:47:02;4.13;;;1.20;;
39128;SDS011;24864;49.940;19.770;2022-07-10T12:49:51;5.80;;;1.23;;
39128;SDS011;24864;49.940;19.770;2022-07-10T12:52:21;3.67;;;0.80;;
39128;SDS011;24864;49.940;19.770;2022-07-10T12:55:07;3.88;;;1.00;;
39128;SDS011;24864;49.940;19.770;2022-07-10T12:57:47;2.83;;;0.98;;
39128;SDS011;24864;49.940;19.770;2022-07-10T13:00:17;7.43;;;1.13;;
39128;SDS011;24864;49.940;19.770;2022-07-10T13:02:47;6.05;;;1.20;;
39128;SDS011;24864;49.940;19.770;2022-07-10T13:05:26;4.90;;;1.10;;
39128;SDS011;24864;49.940;19.770;2022-07-10T13:08:06;3.72;;;0.90;;
39128;SDS011;24864;49.940;19.770;2022-07-10T13:10:36;3.40;;;0.80;;
39128;SDS011;24864;49.940;19.770;2022-07-10T13:13:06;3.63;;;1.00;;
39128;SDS011;24864;49.940;19.770;2022-07-10T13:15:35;6.15;;;1.40;;
39128;SDS011;24864;49.940;19.770;2022-07-10T13:18:06;3.88;;;1.50;;
39128;SDS011;24864;49.940;19.770;2022-07-10T13:20:35;2.55;;;1.67;;
39128;SDS011;24864;49.940;19.770;2022-07-10T13:23:03;7.07;;;2.35;;
39128;SDS011;24864;49.940;19.770;2022-07-10T13:25:31;4.40;;;1.20;;
39128;SDS011;24864;49.940;19.770;2022-07-10T13:27:59;4.32;;;1.50;;
39128;SDS011;24864;49.940;19.770;2022-07-10T13:30:28;7.70;;;1.30;;
39128;SDS011;24864;49.940;19.770;2022-07-10T13:32:56;5.28;;;1.40;;
39128;SDS011;24864;49.940;19.770;2022-07-10T13:35:26;5.00;;;1.25;;
39128;SDS011;24864;49.940;19.770;2022-07-10T13:37:54;3.80;;;1.50;;
39128;SDS011;24864;49.940;19.770;2022-07-10T13:40:26;4.50;;;1.20;;
39128;SDS011;24864;49.940;19.770;2022-07-10T13:42:54;3.15;;;0.98;;
39128;SDS011;24864;49.940;19.770;2022-07-10T13:45:22;3.38;;;0.90;;
39128;SDS011;24864;49.940;19.770;2022-07-10T13:47:54;5.82;;;0.80;;
39128;SDS011;24864;49.940;19.770;2022-07-10T13:50:23;2.20;;;0.80;;
39128;SDS011;24864;49.940;19.770;2022-07-10T13:52:51;6.40;;;1.30;;
39128;SDS011;24864;49.940;19.770;2022-07-10T13:55:19;2.83;;;0.80;;
39128;SDS011;24864;49.940;19.770;2022-07-10T13:57:47;3.03;;;0.90;;
39128;SDS011;24864;49.940;19.770;2022-07-10T14:00:15;2.92;;;1.00;;
39128;SDS011;24864;49.940;19.770;2022-07-10T14:02:43;6.20;;;0.90;;
39128;SDS011;24864;49.940;19.770;2022-07-10T14:05:13;3.53;;;0.90;;
39128;SDS011;24864;49.940;19.770;2022-07-10T14:07:40;5.07;;;1.48;;
39128;SDS011;24864;49.940;19.770;2022-07-10T14:10:08;4.32;;;1.10;;
39128;SDS011;24864;49.940;19.770;2022-07-10T14:12:37;9.63;;;1.23;;
39128;SDS011;24864;49.940;19.770;2022-07-10T14:15:05;4.40;;;1.13;;
39128;SDS011;24864;49.940;19.770;2022-07-10T14:17:34;3.53;;;1.35;;
39128;SDS011;24864;49.940;19.770;2022-07-10T14:20:02;1.67;;;0.70;;
39128;SDS011;24864;49.940;19.770;2022-07-10T14:22:31;5.15;;;1.20;;
39128;SDS011;24864;49.940;19.770;2022-07-10T14:24:59;1.65;;;0.65;;
39128;SDS011;24864;49.940;19.770;2022-07-10T14:27:27;2.47;;;0.80;;
39128;SDS011;24864;49.940;19.770;2022-07-10T14:29:56;2.03;;;1.00;;
39128;SDS011;24864;49.940;19.770;2022-07-10T14:32:24;2.42;;;0.93;;
39128;SDS011;24864;49.940;19.770;2022-07-10T14:34:52;4.70;;;0.98;;
39128;SDS011;24864;49.940;19.770;2022-07-10T14:37:20;3.95;;;0.88;;
39128;SDS011;24864;49.940;19.770;2022-07-10T14:39:50;2.22;;;0.77;;
39128;SDS011;24864;49.940;19.770;2022-07-10T14:42:17;2.70;;;0.90;;
39128;SDS011;24864;49.940;19.770;2022-07-10T14:44:46;1.92;;;0.73;;
39128;SDS011;24864;49.940;19.770;2022-07-10T14:47:14;4.25;;;0.80;;
39128;SDS011;24864;49.940;19.770;2022-07-10T14:49:43;4.00;;;0.93;;
39128;SDS011;24864;49.940;19.770;2022-07-10T14:52:11;2.58;;;0.90;;
39128;SDS011;24864;49.940;19.770;2022-07-10T14:54:40;7.70;;;1.17;;
39128;SDS011;24864;49.940;19.770;2022-07-10T14:57:09;5.43;;;0.82;;
39128;SDS011;24864;49.940;19.770;2022-07-10T14:59:39;2.70;;;0.85;;